sensor_id;sensor_type;location;lat;lon;timestamp;P1;durP1;ratioP1;P2;durP2;ratioP2
14048;SDS011;7099;53.922;10.728;2023-03-15T00:01:14;2.10;;;1.00;;
14048;SDS011;7099;53.922;10.728;2023-03-15T00:05:22;6.43;;;1.67;;
14048;SDS011;7099;53.922;10.728;2023-03-15T00:09:28;1.77;;;1.10;;
14048;SDS011;7099;53.922;10.728;2023-03-15T00:13:33;1.83;;;1.00;;
14048;SDS011;7099;53.922;10.728;2023-03-15T00:17:39;8.80;;;1.33;;
14048;SDS011;7099;53.922;10.728;2023-03-15T00:21:45;3.30;;;1.50;;
14048;SDS011;7099;53.922;10.728;2023-03-15T00:25:50;1.27;;;1.10;;
14048;SDS011;7099;53.922;10.728;2023-03-15T00:29:57;2.53;;;1.40;;
14048;SDS011;7099;53.922;10.728;2023-03-15T00:34:02;2.57;;;1.20;;
14048;SDS011;7099;53.922;10.728;2023-03-15T00:38:08;4.90;;;2.70;;
14048;SDS011;7099;53.922;10.728;2023-03-15T00:42:14;5.53;;;1.50;;
14048;SDS011;7099;53.922;10.728;2023-03-15T00:46:19;2.17;;;1.10;;
14048;SDS011;7099;53.922;10.728;2023-03-15T00:50:25;3.13;;;0.97;;
14048;SDS011;7099;53.922;10.728;2023-03-15T00:54:31;2.30;;;1.13;;
14048;SDS011;7099;53.922;10.728;2023-03-15T00:58:37;1.13;;;1.00;;
14048;SDS011;7099;53.922;10.728;2023-03-15T01:02:43;2.10;;;1.10;;
14048;SDS011;7099;53.922;10.728;2023-03-15T01:06:49;1.57;;;0.87;;
14048;SDS011;7099;53.922;10.728;2023-03-15T01:10:54;2.73;;;1.03;;
14048;SDS011;7099;53.922;10.728;2023-03-15T01:15:00;2.83;;;1.00;;
14048;SDS011;7099;53.922;10.728;2023-03-15T01:19:10;2.93;;;1.20;;
14048;SDS011;7099;53.922;10.728;2023-03-15T01:23:16;3.37;;;1.60;;
14048;SDS011;7099;53.922;10.728;2023-03-15T01:27:22;5.07;;;1.90;;
14048;SDS011;7099;53.922;10.728;2023-03-15T01:31:28;2.07;;;1.60;;
14048;SDS011;7099;53.922;10.728;2023-03-15T01:35:34;8.90;;;1.80;;
14048;SDS011;7099;53.922;10.728;2023-03-15T01:39:40;7.93;;;2.30;;
14048;SDS011;7099;53.922;10.728;2023-03-15T01:43:46;4.60;;;2.40;;
14048;SDS011;7099;53.922;10.728;2023-03-15T01:47:51;8.17;;;2.27;;
14048;SDS011;7099;53.922;10.728;2023-03-15T01:51:57;8.47;;;2.20;;
14048;SDS011;7099;53.922;10.728;2023-03-15T01:56:07;2.20;;;2.00;;
14048;SDS011;7099;53.922;10.728;2023-03-15T02:00:14;6.73;;;2.47;;
14048;SDS011;7099;53.922;10.728;2023-03-15T02:04:24;7.87;;;2.13;;
14048;SDS011;7099;53.922;10.728;2023-03-15T02:08:40;5.90;;;1.90;;
14048;SDS011;7099;53.922;10.728;2023-03-15T02:12:55;5.17;;;2.20;;
14048;SDS011;7099;53.922;10.728;2023-03-15T02:17:03;2.90;;;2.30;;
14048;SDS011;7099;53.922;10.728;2023-03-15T02:30:42;2.33;;;2.13;;
14048;SDS011;7099;53.922;10.728;2023-03-15T02:34:48;4.17;;;2.27;;
14048;SDS011;7099;53.922;10.728;2023-03-15T02:38:54;4.23;;;2.00;;
14048;SDS011;7099;53.922;10.728;2023-03-15T02:43:02;7.70;;;2.50;;
14048;SDS011;7099;53.922;10.728;2023-03-15T02:47:27;4.10;;;2.10;;
14048;SDS011;7099;53.922;10.728;2023-03-15T02:51:36;2.27;;;2.07;;
14048;SDS011;7099;53.922;10.728;2023-03-15T02:55:42;2.67;;;1.90;;
14048;SDS011;7099;53.922;10.728;2023-03-15T02:59:47;3.10;;;1.83;;
14048;SDS011;7099;53.922;10.728;2023-03-15T03:03:54;4.00;;;2.07;;
14048;SDS011;7099;53.922;10.728;2023-03-15T03:08:00;1.90;;;1.80;;
14048;SDS011;7099;53.922;10.728;2023-03-15T03:12:06;1.60;;;1.50;;
14048;SDS011;7099;53.922;10.728;2023-03-15T03:16:12;2.40;;;1.67;;
14048;SDS011;7099;53.922;10.728;2023-03-15T03:20:17;1.67;;;1.40;;
14048;SDS011;7099;53.922;10.728;2023-03-15T03:24:23;2.60;;;1.73;;
14048;SDS011;7099;53.922;10.728;2023-03-15T03:28:30;1.67;;;1.30;;
14048;SDS011;7099;53.922;10.728;2023-03-15T03:32:38;6.83;;;1.50;;
14048;SDS011;7099;53.922;10.728;2023-03-15T03:36:44;2.93;;;1.20;;
14048;SDS011;7099;53.922;10.728;2023-03-15T03:40:50;3.27;;;1.33;;
14048;SDS011;7099;53.922;10.728;2023-03-15T03:44:55;8.30;;;1.50;;
14048;SDS011;7099;53.922;10.728;2023-03-15T03:49:01;3.80;;;1.40;;
14048;SDS011;7099;53.922;10.728;2023-03-15T03:53:07;2.83;;;1.60;;
14048;SDS011;7099;53.922;10.728;2023-03-15T03:57:12;2.00;;;1.20;;
14048;SDS011;7099;53.922;10.728;2023-03-15T04:01:18;3.63;;;1.50;;
14048;SDS011;7099;53.922;10.728;2023-03-15T04:05:25;6.53;;;1.23;;
14048;SDS011;7099;53.922;10.728;2023-03-15T04:09:32;3.90;;;1.67;;
14048;SDS011;7099;53.922;10.728;2023-03-15T04:13:42;2.13;;;1.10;;
14048;SDS011;7099;53.922;10.728;2023-03-15T04:17:49;1.00;;;0.90;;
14048;SDS011;7099;53.922;10.728;2023-03-15T04:22:02;4.30;;;1.00;;
14048;SDS011;7099;53.922;10.728;2023-03-15T04:26:13;2.20;;;1.10;;
14048;SDS011;7099;53.922;10.728;2023-03-15T04:30:19;2.77;;;1.10;;
14048;SDS011;7099;53.922;10.728;2023-03-15T04:34:30;4.83;;;1.00;;
14048;SDS011;7099;53.922;10.728;2023-03-15T04:38:36;5.80;;;1.00;;
14048;SDS011;7099;53.922;10.728;2023-03-15T04:42:41;3.40;;;1.10;;
14048;SDS011;7099;53.922;10.728;2023-03-15T04:46:47;5.33;;;1.23;;
14048;SDS011;7099;53.922;10.728;2023-03-15T04:50:52;2.03;;;0.93;;
14048;SDS011;7099;53.922;10.728;2023-03-15T04:55:02;3.63;;;0.90;;
14048;SDS011;7099;53.922;10.728;2023-03-15T04:59:08;2.17;;;1.30;;
14048;SDS011;7099;53.922;10.728;2023-03-15T05:03:15;3.13;;;1.20;;
14048;SDS011;7099;53.922;10.728;2023-03-15T05:07:20;2.63;;;1.07;;
14048;SDS011;7099;53.922;10.728;2023-03-15T05:11:26;2.57;;;1.43;;
14048;SDS011;7099;53.922;10.728;2023-03-15T05:15:31;8.43;;;1.70;;
14048;SDS011;7099;53.922;10.728;2023-03-15T05:19:37;3.70;;;1.93;;
14048;SDS011;7099;53.922;10.728;2023-03-15T05:23:42;3.83;;;1.70;;
14048;SDS011;7099;53.922;10.728;2023-03-15T05:27:48;6.47;;;2.23;;
14048;SDS011;7099;53.922;10.728;2023-03-15T05:31:53;2.63;;;2.13;;
14048;SDS011;7099;53.922;10.728;2023-03-15T05:35:59;2.47;;;2.07;;
14048;SDS011;7099;53.922;10.728;2023-03-15T05:40:05;3.27;;;1.90;;
14048;SDS011;7099;53.922;10.728;2023-03-15T05:44:11;3.67;;;2.37;;
14048;SDS011;7099;53.922;10.728;2023-03-15T05:48:17;3.17;;;2.30;;
14048;SDS011;7099;53.922;10.728;2023-03-15T05:52:23;3.80;;;2.50;;
14048;SDS011;7099;53.922;10.728;2023-03-15T05:56:28;3.50;;;2.30;;
14048;SDS011;7099;53.922;10.728;2023-03-15T06:00:34;5.50;;;3.20;;
14048;SDS011;7099;53.922;10.728;2023-03-15T06:04:39;4.60;;;2.83;;
14048;SDS011;7099;53.922;10.728;2023-03-15T06:08:45;5.40;;;3.30;;
14048;SDS011;7099;53.922;10.728;2023-03-15T06:12:51;4.73;;;3.10;;
14048;SDS011;7099;53.922;10.728;2023-03-15T06:16:56;5.17;;;3.30;;
14048;SDS011;7099;53.922;10.728;2023-03-15T06:21:02;6.93;;;3.43;;
14048;SDS011;7099;53.922;10.728;2023-03-15T06:25:08;7.57;;;3.90;;
14048;SDS011;7099;53.922;10.728;2023-03-15T06:29:14;3.80;;;3.40;;
14048;SDS011;7099;53.922;10.728;2023-03-15T06:33:21;6.90;;;3.90;;
14048;SDS011;7099;53.922;10.728;2023-03-15T06:37:28;6.03;;;3.47;;
14048;SDS011;7099;53.922;10.728;2023-03-15T06:41:39;5.70;;;3.60;;
14048;SDS011;7099;53.922;10.728;2023-03-15T06:45:45;5.63;;;4.30;;
14048;SDS011;7099;53.922;10.728;2023-03-15T06:49:51;5.30;;;3.77;;
14048;SDS011;7099;53.922;10.728;2023-03-15T06:53:58;4.93;;;4.20;;
14048;SDS011;7099;53.922;10.728;2023-03-15T06:58:03;8.73;;;4.40;;
14048;SDS011;7099;53.922;10.728;2023-03-15T07:02:13;5.30;;;3.97;;
14048;SDS011;7099;53.922;10.728;2023-03-15T07:06:21;8.70;;;3.77;;
14048;SDS011;7099;53.922;10.728;2023-03-15T07:10:27;4.93;;;3.50;;
14048;SDS011;7099;53.922;10.728;2023-03-15T07:14:33;5.13;;;3.50;;
14048;SDS011;7099;53.922;10.728;2023-03-15T07:18:39;4.13;;;3.47;;
14048;SDS011;7099;53.922;10.728;2023-03-15T07:22:44;6.77;;;3.20;;
14048;SDS011;7099;53.922;10.728;2023-03-15T07:26:50;4.80;;;2.60;;
14048;SDS011;7099;53.922;10.728;2023-03-15T07:31:01;7.20;;;3.00;;
14048;SDS011;7099;53.922;10.728;2023-03-15T07:35:08;6.50;;;2.70;;
14048;SDS011;7099;53.922;10.728;2023-03-15T07:39:17;3.47;;;2.67;;
14048;SDS011;7099;53.922;10.728;2023-03-15T07:43:22;4.27;;;2.90;;
14048;SDS011;7099;53.922;10.728;2023-03-15T07:47:28;3.80;;;2.70;;
14048;SDS011;7099;53.922;10.728;2023-03-15T07:51:34;4.10;;;2.63;;
14048;SDS011;7099;53.922;10.728;2023-03-15T07:55:40;4.80;;;2.40;;
14048;SDS011;7099;53.922;10.728;2023-03-15T07:59:46;3.70;;;2.70;;
14048;SDS011;7099;53.922;10.728;2023-03-15T08:03:51;4.33;;;2.40;;
14048;SDS011;7099;53.922;10.728;2023-03-15T08:07:57;4.70;;;3.13;;
14048;SDS011;7099;53.922;10.728;2023-03-15T08:12:02;3.87;;;2.80;;
14048;SDS011;7099;53.922;10.728;2023-03-15T08:16:08;7.70;;;3.23;;
14048;SDS011;7099;53.922;10.728;2023-03-15T08:20:14;4.70;;;3.27;;
14048;SDS011;7099;53.922;10.728;2023-03-15T08:24:23;3.97;;;3.20;;
14048;SDS011;7099;53.922;10.728;2023-03-15T08:28:29;5.87;;;3.50;;
14048;SDS011;7099;53.922;10.728;2023-03-15T08:32:34;4.73;;;3.30;;
14048;SDS011;7099;53.922;10.728;2023-03-15T08:36:40;5.07;;;2.70;;
14048;SDS011;7099;53.922;10.728;2023-03-15T08:40:47;4.30;;;2.67;;
14048;SDS011;7099;53.922;10.728;2023-03-15T08:44:53;3.87;;;2.57;;
14048;SDS011;7099;53.922;10.728;2023-03-15T08:49:05;4.83;;;2.10;;
14048;SDS011;7099;53.922;10.728;2023-03-15T08:53:11;1.90;;;1.50;;
14048;SDS011;7099;53.922;10.728;2023-03-15T08:57:16;3.77;;;1.60;;
14048;SDS011;7099;53.922;10.728;2023-03-15T09:01:22;3.73;;;1.70;;
14048;SDS011;7099;53.922;10.728;2023-03-15T09:05:28;1.40;;;1.10;;
14048;SDS011;7099;53.922;10.728;2023-03-15T09:09:33;7.03;;;1.40;;
14048;SDS011;7099;53.922;10.728;2023-03-15T09:13:39;1.90;;;1.10;;
14048;SDS011;7099;53.922;10.728;2023-03-15T09:17:45;1.03;;;1.00;;
14048;SDS011;7099;53.922;10.728;2023-03-15T09:21:52;1.67;;;1.20;;
14048;SDS011;7099;53.922;10.728;2023-03-15T09:25:58;2.53;;;1.00;;
14048;SDS011;7099;53.922;10.728;2023-03-15T09:30:04;3.13;;;1.17;;
14048;SDS011;7099;53.922;10.728;2023-03-15T09:34:10;3.13;;;1.33;;
14048;SDS011;7099;53.922;10.728;2023-03-15T09:38:17;5.07;;;1.90;;
14048;SDS011;7099;53.922;10.728;2023-03-15T09:52:22;4.73;;;1.50;;
14048;SDS011;7099;53.922;10.728;2023-03-15T10:00:45;2.87;;;1.40;;
14048;SDS011;7099;53.922;10.728;2023-03-15T10:04:57;1.70;;;1.20;;
14048;SDS011;7099;53.922;10.728;2023-03-15T10:09:21;1.23;;;1.13;;
14048;SDS011;7099;53.922;10.728;2023-03-15T10:23:15;4.13;;;1.50;;
14048;SDS011;7099;53.922;10.728;2023-03-15T10:32:18;3.23;;;1.30;;
14048;SDS011;7099;53.922;10.728;2023-03-15T10:36:30;3.90;;;1.47;;
14048;SDS011;7099;53.922;10.728;2023-03-15T10:40:39;1.97;;;1.20;;
14048;SDS011;7099;53.922;10.728;2023-03-15T10:44:50;5.47;;;1.20;;
14048;SDS011;7099;53.922;10.728;2023-03-15T10:48:56;2.60;;;1.40;;
14048;SDS011;7099;53.922;10.728;2023-03-15T10:53:08;3.27;;;1.50;;
14048;SDS011;7099;53.922;10.728;2023-03-15T10:57:18;4.03;;;1.60;;
14048;SDS011;7099;53.922;10.728;2023-03-15T11:01:32;5.43;;;1.30;;
14048;SDS011;7099;53.922;10.728;2023-03-15T11:05:42;1.10;;;1.00;;
14048;SDS011;7099;53.922;10.728;2023-03-15T11:09:52;4.87;;;1.43;;
14048;SDS011;7099;53.922;10.728;2023-03-15T11:14:04;4.57;;;1.40;;
14048;SDS011;7099;53.922;10.728;2023-03-15T11:18:18;2.23;;;1.00;;
14048;SDS011;7099;53.922;10.728;2023-03-15T11:22:30;7.63;;;1.20;;
14048;SDS011;7099;53.922;10.728;2023-03-15T11:26:37;4.40;;;1.17;;
14048;SDS011;7099;53.922;10.728;2023-03-15T11:30:43;4.00;;;1.20;;
14048;SDS011;7099;53.922;10.728;2023-03-15T11:39:14;6.43;;;1.30;;
14048;SDS011;7099;53.922;10.728;2023-03-15T11:47:56;3.60;;;1.40;;
14048;SDS011;7099;53.922;10.728;2023-03-15T11:52:08;1.40;;;1.10;;
14048;SDS011;7099;53.922;10.728;2023-03-15T11:56:22;11.50;;;1.57;;
14048;SDS011;7099;53.922;10.728;2023-03-15T12:00:52;1.63;;;1.30;;
14048;SDS011;7099;53.922;10.728;2023-03-15T12:05:04;1.30;;;1.00;;
14048;SDS011;7099;53.922;10.728;2023-03-15T12:13:36;4.50;;;1.10;;
14048;SDS011;7099;53.922;10.728;2023-03-15T12:21:55;3.17;;;1.33;;
14048;SDS011;7099;53.922;10.728;2023-03-15T12:30:14;1.10;;;0.90;;
14048;SDS011;7099;53.922;10.728;2023-03-15T12:38:36;1.70;;;1.20;;
14048;SDS011;7099;53.922;10.728;2023-03-15T12:46:53;4.00;;;1.73;;
14048;SDS011;7099;53.922;10.728;2023-03-15T12:51:01;6.33;;;2.00;;
14048;SDS011;7099;53.922;10.728;2023-03-15T12:55:11;3.87;;;1.27;;
14048;SDS011;7099;53.922;10.728;2023-03-15T12:59:39;1.67;;;1.07;;
14048;SDS011;7099;53.922;10.728;2023-03-15T13:03:56;4.73;;;1.10;;
14048;SDS011;7099;53.922;10.728;2023-03-15T13:08:22;2.97;;;1.20;;
14048;SDS011;7099;53.922;10.728;2023-03-15T13:12:36;12.20;;;1.50;;
14048;SDS011;7099;53.922;10.728;2023-03-15T13:21:56;8.27;;;1.60;;
14048;SDS011;7099;53.922;10.728;2023-03-15T13:35:10;3.37;;;1.10;;
14048;SDS011;7099;53.922;10.728;2023-03-15T13:43:29;10.37;;;1.50;;
14048;SDS011;7099;53.922;10.728;2023-03-15T13:47:39;4.33;;;1.40;;
14048;SDS011;7099;53.922;10.728;2023-03-15T13:51:47;1.67;;;0.80;;
14048;SDS011;7099;53.922;10.728;2023-03-15T13:55:55;2.83;;;1.13;;
14048;SDS011;7099;53.922;10.728;2023-03-15T14:00:03;6.27;;;1.33;;
14048;SDS011;7099;53.922;10.728;2023-03-15T14:04:16;7.40;;;1.93;;
14048;SDS011;7099;53.922;10.728;2023-03-15T14:08:24;12.13;;;2.43;;
14048;SDS011;7099;53.922;10.728;2023-03-15T14:12:31;8.73;;;2.70;;
14048;SDS011;7099;53.922;10.728;2023-03-15T14:16:41;6.50;;;1.90;;
14048;SDS011;7099;53.922;10.728;2023-03-15T14:21:29;5.70;;;1.33;;
14048;SDS011;7099;53.922;10.728;2023-03-15T14:25:36;7.50;;;1.67;;
14048;SDS011;7099;53.922;10.728;2023-03-15T14:29:45;1.30;;;1.17;;
14048;SDS011;7099;53.922;10.728;2023-03-15T14:34:04;5.33;;;1.53;;
14048;SDS011;7099;53.922;10.728;2023-03-15T14:38:23;4.97;;;1.30;;
14048;SDS011;7099;53.922;10.728;2023-03-15T14:42:30;5.43;;;1.50;;
14048;SDS011;7099;53.922;10.728;2023-03-15T14:46:36;6.93;;;1.37;;
14048;SDS011;7099;53.922;10.728;2023-03-15T14:50:42;8.63;;;1.60;;
14048;SDS011;7099;53.922;10.728;2023-03-15T14:54:49;7.33;;;1.80;;
14048;SDS011;7099;53.922;10.728;2023-03-15T14:58:55;5.50;;;1.10;;
14048;SDS011;7099;53.922;10.728;2023-03-15T15:03:01;8.30;;;1.40;;
14048;SDS011;7099;53.922;10.728;2023-03-15T15:07:09;18.33;;;1.40;;
14048;SDS011;7099;53.922;10.728;2023-03-15T15:11:16;3.37;;;1.30;;
14048;SDS011;7099;53.922;10.728;2023-03-15T15:15:21;4.00;;;1.37;;
14048;SDS011;7099;53.922;10.728;2023-03-15T15:19:27;8.23;;;1.60;;
14048;SDS011;7099;53.922;10.728;2023-03-15T15:23:34;6.10;;;1.90;;
14048;SDS011;7099;53.922;10.728;2023-03-15T15:28:01;8.57;;;2.30;;
14048;SDS011;7099;53.922;10.728;2023-03-15T15:32:06;2.10;;;1.00;;
14048;SDS011;7099;53.922;10.728;2023-03-15T15:36:13;7.40;;;1.30;;
14048;SDS011;7099;53.922;10.728;2023-03-15T15:40:31;8.00;;;1.60;;
14048;SDS011;7099;53.922;10.728;2023-03-15T15:44:37;9.07;;;1.73;;
14048;SDS011;7099;53.922;10.728;2023-03-15T15:48:43;8.50;;;2.30;;
14048;SDS011;7099;53.922;10.728;2023-03-15T15:52:49;7.00;;;2.33;;
14048;SDS011;7099;53.922;10.728;2023-03-15T15:56:57;6.20;;;1.50;;
14048;SDS011;7099;53.922;10.728;2023-03-15T16:01:04;6.77;;;2.10;;
14048;SDS011;7099;53.922;10.728;2023-03-15T16:05:10;7.93;;;1.53;;
14048;SDS011;7099;53.922;10.728;2023-03-15T16:09:16;9.10;;;2.33;;
14048;SDS011;7099;53.922;10.728;2023-03-15T16:13:23;5.33;;;1.73;;
14048;SDS011;7099;53.922;10.728;2023-03-15T16:17:29;9.97;;;1.70;;
14048;SDS011;7099;53.922;10.728;2023-03-15T16:21:38;7.07;;;1.50;;
14048;SDS011;7099;53.922;10.728;2023-03-15T16:25:52;4.10;;;1.53;;
14048;SDS011;7099;53.922;10.728;2023-03-15T16:29:59;3.93;;;1.10;;
14048;SDS011;7099;53.922;10.728;2023-03-15T16:34:12;9.73;;;1.63;;
14048;SDS011;7099;53.922;10.728;2023-03-15T16:38:20;7.73;;;2.00;;
14048;SDS011;7099;53.922;10.728;2023-03-15T16:42:36;10.47;;;1.97;;
14048;SDS011;7099;53.922;10.728;2023-03-15T16:46:42;7.90;;;3.07;;
14048;SDS011;7099;53.922;10.728;2023-03-15T16:50:48;6.87;;;1.63;;
14048;SDS011;7099;53.922;10.728;2023-03-15T16:54:55;12.53;;;2.13;;
14048;SDS011;7099;53.922;10.728;2023-03-15T16:59:01;14.13;;;2.03;;
14048;SDS011;7099;53.922;10.728;2023-03-15T17:03:08;6.70;;;1.70;;
14048;SDS011;7099;53.922;10.728;2023-03-15T17:07:14;14.63;;;1.80;;
14048;SDS011;7099;53.922;10.728;2023-03-15T17:11:20;9.60;;;2.30;;
14048;SDS011;7099;53.922;10.728;2023-03-15T17:15:26;9.07;;;1.83;;
14048;SDS011;7099;53.922;10.728;2023-03-15T17:19:33;9.30;;;1.67;;
14048;SDS011;7099;53.922;10.728;2023-03-15T17:23:39;4.20;;;1.50;;
14048;SDS011;7099;53.922;10.728;2023-03-15T17:27:46;3.70;;;1.57;;
14048;SDS011;7099;53.922;10.728;2023-03-15T17:31:52;8.20;;;1.60;;
14048;SDS011;7099;53.922;10.728;2023-03-15T17:35:58;9.00;;;2.03;;
14048;SDS011;7099;53.922;10.728;2023-03-15T17:40:06;13.10;;;2.23;;
14048;SDS011;7099;53.922;10.728;2023-03-15T17:44:28;12.03;;;1.57;;
14048;SDS011;7099;53.922;10.728;2023-03-15T17:48:35;14.90;;;1.90;;
14048;SDS011;7099;53.922;10.728;2023-03-15T17:52:41;9.77;;;2.33;;
14048;SDS011;7099;53.922;10.728;2023-03-15T17:56:48;4.27;;;1.70;;
14048;SDS011;7099;53.922;10.728;2023-03-15T18:00:55;8.03;;;2.00;;
14048;SDS011;7099;53.922;10.728;2023-03-15T18:05:00;10.17;;;2.00;;
14048;SDS011;7099;53.922;10.728;2023-03-15T18:09:09;6.60;;;2.13;;
14048;SDS011;7099;53.922;10.728;2023-03-15T18:13:17;11.17;;;2.00;;
14048;SDS011;7099;53.922;10.728;2023-03-15T18:17:25;8.43;;;1.77;;
14048;SDS011;7099;53.922;10.728;2023-03-15T18:21:30;11.73;;;1.90;;
14048;SDS011;7099;53.922;10.728;2023-03-15T18:25:36;12.27;;;1.73;;
14048;SDS011;7099;53.922;10.728;2023-03-15T18:29:41;12.43;;;2.30;;
14048;SDS011;7099;53.922;10.728;2023-03-15T18:33:47;9.30;;;1.63;;
14048;SDS011;7099;53.922;10.728;2023-03-15T18:37:54;7.57;;;1.70;;
14048;SDS011;7099;53.922;10.728;2023-03-15T18:42:01;5.93;;;1.80;;
14048;SDS011;7099;53.922;10.728;2023-03-15T18:46:06;12.20;;;2.60;;
14048;SDS011;7099;53.922;10.728;2023-03-15T18:50:13;6.27;;;2.17;;
14048;SDS011;7099;53.922;10.728;2023-03-15T18:54:21;7.57;;;2.10;;
14048;SDS011;7099;53.922;10.728;2023-03-15T18:58:30;9.13;;;2.37;;
14048;SDS011;7099;53.922;10.728;2023-03-15T19:02:36;6.73;;;2.03;;
14048;SDS011;7099;53.922;10.728;2023-03-15T19:06:41;6.10;;;2.13;;
14048;SDS011;7099;53.922;10.728;2023-03-15T19:10:47;13.70;;;2.20;;
14048;SDS011;7099;53.922;10.728;2023-03-15T19:14:52;8.70;;;2.00;;
14048;SDS011;7099;53.922;10.728;2023-03-15T19:18:57;10.77;;;2.47;;
14048;SDS011;7099;53.922;10.728;2023-03-15T19:23:03;10.73;;;1.90;;
14048;SDS011;7099;53.922;10.728;2023-03-15T19:27:08;8.87;;;2.47;;
14048;SDS011;7099;53.922;10.728;2023-03-15T19:31:14;9.10;;;1.73;;
14048;SDS011;7099;53.922;10.728;2023-03-15T19:35:20;7.57;;;1.97;;
14048;SDS011;7099;53.922;10.728;2023-03-15T19:39:25;11.73;;;2.60;;
14048;SDS011;7099;53.922;10.728;2023-03-15T19:43:31;11.10;;;2.00;;
14048;SDS011;7099;53.922;10.728;2023-03-15T19:47:36;12.03;;;2.40;;
14048;SDS011;7099;53.922;10.728;2023-03-15T19:51:43;12.33;;;2.27;;
14048;SDS011;7099;53.922;10.728;2023-03-15T19:55:48;8.53;;;2.30;;
14048;SDS011;7099;53.922;10.728;2023-03-15T19:59:53;12.70;;;3.00;;
14048;SDS011;7099;53.922;10.728;2023-03-15T20:03:59;9.73;;;2.57;;
14048;SDS011;7099;53.922;10.728;2023-03-15T20:08:05;6.43;;;2.00;;
14048;SDS011;7099;53.922;10.728;2023-03-15T20:12:12;8.13;;;2.50;;
14048;SDS011;7099;53.922;10.728;2023-03-15T20:16:17;7.53;;;2.00;;
14048;SDS011;7099;53.922;10.728;2023-03-15T20:20:24;5.13;;;1.70;;
14048;SDS011;7099;53.922;10.728;2023-03-15T20:24:30;7.67;;;1.87;;
14048;SDS011;7099;53.922;10.728;2023-03-15T20:28:36;9.17;;;2.60;;
14048;SDS011;7099;53.922;10.728;2023-03-15T20:32:43;7.77;;;2.00;;
14048;SDS011;7099;53.922;10.728;2023-03-15T20:36:48;10.00;;;2.20;;
14048;SDS011;7099;53.922;10.728;2023-03-15T20:40:56;15.10;;;2.50;;
14048;SDS011;7099;53.922;10.728;2023-03-15T20:45:02;13.03;;;2.13;;
14048;SDS011;7099;53.922;10.728;2023-03-15T20:49:09;6.90;;;2.43;;
14048;SDS011;7099;53.922;10.728;2023-03-15T20:53:14;6.30;;;2.40;;
14048;SDS011;7099;53.922;10.728;2023-03-15T20:57:20;10.10;;;2.60;;
14048;SDS011;7099;53.922;10.728;2023-03-15T21:01:25;8.53;;;2.67;;
14048;SDS011;7099;53.922;10.728;2023-03-15T21:05:31;9.57;;;2.50;;
14048;SDS011;7099;53.922;10.728;2023-03-15T21:09:37;10.73;;;2.50;;
14048;SDS011;7099;53.922;10.728;2023-03-15T21:13:44;7.07;;;2.47;;
14048;SDS011;7099;53.922;10.728;2023-03-15T21:17:49;7.37;;;2.20;;
14048;SDS011;7099;53.922;10.728;2023-03-15T21:21:56;11.67;;;2.23;;
14048;SDS011;7099;53.922;10.728;2023-03-15T21:26:05;10.10;;;2.50;;
14048;SDS011;7099;53.922;10.728;2023-03-15T21:30:13;12.00;;;2.03;;
14048;SDS011;7099;53.922;10.728;2023-03-15T21:34:19;9.57;;;2.30;;
14048;SDS011;7099;53.922;10.728;2023-03-15T21:38:25;15.23;;;2.27;;
14048;SDS011;7099;53.922;10.728;2023-03-15T21:42:32;8.30;;;2.13;;
14048;SDS011;7099;53.922;10.728;2023-03-15T21:46:39;8.73;;;2.40;;
14048;SDS011;7099;53.922;10.728;2023-03-15T21:50:46;11.73;;;2.17;;
14048;SDS011;7099;53.922;10.728;2023-03-15T21:54:57;12.60;;;2.67;;
14048;SDS011;7099;53.922;10.728;2023-03-15T21:59:03;7.03;;;2.10;;
14048;SDS011;7099;53.922;10.728;2023-03-15T22:03:09;5.43;;;2.07;;
14048;SDS011;7099;53.922;10.728;2023-03-15T22:07:17;13.77;;;2.50;;
14048;SDS011;7099;53.922;10.728;2023-03-15T22:11:22;11.57;;;2.40;;
14048;SDS011;7099;53.922;10.728;2023-03-15T22:15:28;8.23;;;2.20;;
14048;SDS011;7099;53.922;10.728;2023-03-15T22:19:33;6.40;;;2.10;;
14048;SDS011;7099;53.922;10.728;2023-03-15T22:23:39;8.50;;;2.20;;
14048;SDS011;7099;53.922;10.728;2023-03-15T22:27:44;9.53;;;2.10;;
14048;SDS011;7099;53.922;10.728;2023-03-15T22:31:50;8.50;;;2.10;;
14048;SDS011;7099;53.922;10.728;2023-03-15T22:35:56;10.00;;;2.50;;
14048;SDS011;7099;53.922;10.728;2023-03-15T22:40:03;23.93;;;2.37;;
14048;SDS011;7099;53.922;10.728;2023-03-15T22:44:10;12.17;;;2.50;;
14048;SDS011;7099;53.922;10.728;2023-03-15T22:48:15;6.40;;;2.23;;
14048;SDS011;7099;53.922;10.728;2023-03-15T22:52:21;10.73;;;2.50;;
14048;SDS011;7099;53.922;10.728;2023-03-15T22:56:26;6.67;;;2.00;;
14048;SDS011;7099;53.922;10.728;2023-03-15T23:00:32;7.10;;;2.67;;
14048;SDS011;7099;53.922;10.728;2023-03-15T23:04:38;12.43;;;2.50;;
14048;SDS011;7099;53.922;10.728;2023-03-15T23:08:43;6.37;;;1.90;;
14048;SDS011;7099;53.922;10.728;2023-03-15T23:12:50;8.07;;;2.63;;
14048;SDS011;7099;53.922;10.728;2023-03-15T23:16:55;7.03;;;2.30;;
14048;SDS011;7099;53.922;10.728;2023-03-15T23:21:08;18.83;;;2.70;;
14048;SDS011;7099;53.922;10.728;2023-03-15T23:25:18;4.67;;;1.93;;
14048;SDS011;7099;53.922;10.728;2023-03-15T23:29:26;4.97;;;2.10;;
14048;SDS011;7099;53.922;10.728;2023-03-15T23:33:31;8.37;;;2.60;;
14048;SDS011;7099;53.922;10.728;2023-03-15T23:37:38;11.90;;;2.73;;
14048;SDS011;7099;53.922;10.728;2023-03-15T23:41:45;5.60;;;2.10;;
14048;SDS011;7099;53.922;10.728;2023-03-15T23:45:54;4.73;;;2.30;;
14048;SDS011;7099;53.922;10.728;2023-03-15T23:50:08;5.77;;;2.17;;
14048;SDS011;7099;53.922;10.728;2023-03-15T23:54:16;8.93;;;2.40;;
14048;SDS011;7099;53.922;10.728;2023-03-15T23:58:22;11.03;;;2.70;;
